sensor_id;sensor_type;location;lat;lon;timestamp;pressure;altitude;pressure_sealevel;temperature;humidity
31082;BME280;17737;52.586;13.284;2023-04-10T00:00:35;102172.63;;;5.77;90.04
31082;BME280;17737;52.586;13.284;2023-04-10T00:03:04;102176.63;;;5.84;89.47
31082;BME280;17737;52.586;13.284;2023-04-10T00:05:32;102176.41;;;5.87;88.77
31082;BME280;17737;52.586;13.284;2023-04-10T00:08:02;102173.19;;;5.82;89.25
31082;BME280;17737;52.586;13.284;2023-04-10T00:10:30;102169.59;;;5.83;88.57
31082;BME280;17737;52.586;13.284;2023-04-10T00:13:00;102162.69;;;5.79;88.64
31082;BME280;17737;52.586;13.284;2023-04-10T00:15:29;102160.06;;;5.65;88.92
31082;BME280;17737;52.586;13.284;2023-04-10T00:17:57;102160.88;;;5.53;89.64
31082;BME280;17737;52.586;13.284;2023-04-10T00:20:25;102156.94;;;5.46;90.19
31082;BME280;17737;52.586;13.284;2023-04-10T00:22:53;102157.88;;;5.45;90.39
31082;BME280;17737;52.586;13.284;2023-04-10T00:25:21;102146.03;;;5.49;90.00
31082;BME280;17737;52.586;13.284;2023-04-10T00:27:49;102144.50;;;5.45;90.15
31082;BME280;17737;52.586;13.284;2023-04-10T00:30:19;102140.13;;;5.44;90.03
31082;BME280;17737;52.586;13.284;2023-04-10T00:32:47;102143.34;;;5.49;89.89
31082;BME280;17737;52.586;13.284;2023-04-10T00:35:15;102139.25;;;5.44;89.52
31082;BME280;17737;52.586;13.284;2023-04-10T00:37:43;102134.69;;;5.46;89.59
31082;BME280;17737;52.586;13.284;2023-04-10T00:40:12;102131.78;;;5.36;89.78
31082;BME280;17737;52.586;13.284;2023-04-10T00:42:40;102128.69;;;5.42;89.90
31082;BME280;17737;52.586;13.284;2023-04-10T00:45:09;102128.72;;;5.55;88.95
31082;BME280;17737;52.586;13.284;2023-04-10T00:47:39;102131.78;;;5.49;88.60
31082;BME280;17737;52.586;13.284;2023-04-10T00:50:07;102136.44;;;5.59;88.00
31082;BME280;17737;52.586;13.284;2023-04-10T00:52:36;102132.13;;;5.44;88.82
31082;BME280;17737;52.586;13.284;2023-04-10T00:55:05;102136.63;;;5.30;89.42
31082;BME280;17737;52.586;13.284;2023-04-10T00:57:34;102135.97;;;5.26;89.28
31082;BME280;17737;52.586;13.284;2023-04-10T01:00:03;102122.06;;;5.21;89.56
31082;BME280;17737;52.586;13.284;2023-04-10T01:02:32;102121.03;;;5.24;89.48
31082;BME280;17737;52.586;13.284;2023-04-10T01:05:02;102130.03;;;5.35;89.31
31082;BME280;17737;52.586;13.284;2023-04-10T01:07:34;102130.84;;;5.50;88.32
31082;BME280;17737;52.586;13.284;2023-04-10T01:10:16;102126.44;;;5.36;88.44
31082;BME280;17737;52.586;13.284;2023-04-10T01:12:56;102119.00;;;5.27;88.39
31082;BME280;17737;52.586;13.284;2023-04-10T01:15:38;102120.91;;;5.25;88.94
31082;BME280;17737;52.586;13.284;2023-04-10T01:18:17;102120.38;;;5.20;88.70
31082;BME280;17737;52.586;13.284;2023-04-10T01:20:52;102118.84;;;5.16;88.70
31082;BME280;17737;52.586;13.284;2023-04-10T01:23:35;102116.00;;;5.19;89.15
31082;BME280;17737;52.586;13.284;2023-04-10T01:26:26;102124.34;;;5.27;88.92
31082;BME280;17737;52.586;13.284;2023-04-10T01:29:07;102126.59;;;5.07;88.66
31082;BME280;17737;52.586;13.284;2023-04-10T01:31:41;102131.75;;;5.10;88.96
31082;BME280;17737;52.586;13.284;2023-04-10T01:34:15;102130.53;;;5.01;89.14
31082;BME280;17737;52.586;13.284;2023-04-10T01:36:50;102131.59;;;4.99;89.70
31082;BME280;17737;52.586;13.284;2023-04-10T01:39:23;102130.44;;;5.03;89.47
31082;BME280;17737;52.586;13.284;2023-04-10T01:41:55;102128.81;;;5.00;89.78
31082;BME280;17737;52.586;13.284;2023-04-10T01:44:29;102121.38;;;5.05;89.58
31082;BME280;17737;52.586;13.284;2023-04-10T01:47:01;102119.47;;;5.07;89.56
31082;BME280;17737;52.586;13.284;2023-04-10T01:49:37;102118.25;;;4.99;89.56
31082;BME280;17737;52.586;13.284;2023-04-10T01:52:10;102117.47;;;4.97;89.07
31082;BME280;17737;52.586;13.284;2023-04-10T01:54:41;102117.03;;;4.90;89.30
31082;BME280;17737;52.586;13.284;2023-04-10T01:57:11;102116.63;;;4.96;89.21
31082;BME280;17737;52.586;13.284;2023-04-10T01:59:42;102118.72;;;4.91;89.58
31082;BME280;17737;52.586;13.284;2023-04-10T02:02:11;102119.63;;;4.77;90.12
31082;BME280;17737;52.586;13.284;2023-04-10T02:04:39;102122.28;;;4.77;89.90
31082;BME280;17737;52.586;13.284;2023-04-10T02:07:10;102119.72;;;4.76;89.88
31082;BME280;17737;52.586;13.284;2023-04-10T02:09:47;102114.69;;;4.71;90.42
31082;BME280;17737;52.586;13.284;2023-04-10T02:12:22;102119.50;;;4.79;89.95
31082;BME280;17737;52.586;13.284;2023-04-10T02:14:59;102120.69;;;4.75;89.99
31082;BME280;17737;52.586;13.284;2023-04-10T02:17:29;102114.16;;;4.79;90.03
31082;BME280;17737;52.586;13.284;2023-04-10T02:20:00;102111.97;;;4.85;89.41
31082;BME280;17737;52.586;13.284;2023-04-10T02:22:29;102116.81;;;4.93;88.44
31082;BME280;17737;52.586;13.284;2023-04-10T02:24:58;102112.34;;;4.94;88.27
31082;BME280;17737;52.586;13.284;2023-04-10T02:27:30;102112.72;;;4.87;88.46
31082;BME280;17737;52.586;13.284;2023-04-10T02:30:00;102115.16;;;4.64;88.39
31082;BME280;17737;52.586;13.284;2023-04-10T02:32:30;102113.06;;;4.69;88.69
31082;BME280;17737;52.586;13.284;2023-04-10T02:34:59;102115.72;;;4.69;88.86
31082;BME280;17737;52.586;13.284;2023-04-10T02:37:27;102120.09;;;4.70;88.82
31082;BME280;17737;52.586;13.284;2023-04-10T02:39:56;102117.34;;;4.71;88.47
31082;BME280;17737;52.586;13.284;2023-04-10T02:42:24;102117.06;;;4.62;89.18
31082;BME280;17737;52.586;13.284;2023-04-10T02:44:52;102114.69;;;4.57;89.41
31082;BME280;17737;52.586;13.284;2023-04-10T02:47:21;102119.25;;;4.55;89.36
31082;BME280;17737;52.586;13.284;2023-04-10T02:49:50;102121.25;;;4.66;88.72
31082;BME280;17737;52.586;13.284;2023-04-10T02:52:18;102116.84;;;4.65;88.38
31082;BME280;17737;52.586;13.284;2023-04-10T02:54:46;102116.41;;;4.58;88.48
31082;BME280;17737;52.586;13.284;2023-04-10T02:57:14;102129.16;;;4.53;88.15
31082;BME280;17737;52.586;13.284;2023-04-10T02:59:43;102123.16;;;4.50;88.69
31082;BME280;17737;52.586;13.284;2023-04-10T03:02:11;102124.22;;;4.33;88.76
31082;BME280;17737;52.586;13.284;2023-04-10T03:04:40;102121.28;;;4.24;89.08
31082;BME280;17737;52.586;13.284;2023-04-10T03:07:08;102122.78;;;4.28;89.10
31082;BME280;17737;52.586;13.284;2023-04-10T03:09:36;102127.44;;;4.24;89.27
31082;BME280;17737;52.586;13.284;2023-04-10T03:12:04;102129.16;;;4.11;89.52
31082;BME280;17737;52.586;13.284;2023-04-10T03:14:32;102120.72;;;4.19;89.53
31082;BME280;17737;52.586;13.284;2023-04-10T03:17:00;102127.75;;;4.20;89.07
31082;BME280;17737;52.586;13.284;2023-04-10T03:19:28;102128.88;;;4.16;89.57
31082;BME280;17737;52.586;13.284;2023-04-10T03:21:58;102123.25;;;4.06;89.67
31082;BME280;17737;52.586;13.284;2023-04-10T03:24:26;102128.00;;;4.01;89.68
31082;BME280;17737;52.586;13.284;2023-04-10T03:26:54;102131.91;;;3.96;89.67
31082;BME280;17737;52.586;13.284;2023-04-10T03:29:23;102120.47;;;3.94;89.93
31082;BME280;17737;52.586;13.284;2023-04-10T03:31:51;102121.13;;;3.97;89.73
31082;BME280;17737;52.586;13.284;2023-04-10T03:34:19;102118.94;;;4.04;89.47
31082;BME280;17737;52.586;13.284;2023-04-10T03:36:47;102116.88;;;3.95;89.35
31082;BME280;17737;52.586;13.284;2023-04-10T03:39:16;102121.53;;;4.05;89.09
31082;BME280;17737;52.586;13.284;2023-04-10T03:41:44;102117.06;;;4.06;88.80
31082;BME280;17737;52.586;13.284;2023-04-10T03:44:12;102119.53;;;4.09;88.44
31082;BME280;17737;52.586;13.284;2023-04-10T03:46:40;102119.16;;;4.15;88.13
31082;BME280;17737;52.586;13.284;2023-04-10T03:49:08;102120.88;;;4.02;88.52
31082;BME280;17737;52.586;13.284;2023-04-10T03:51:36;102119.63;;;4.07;88.18
31082;BME280;17737;52.586;13.284;2023-04-10T03:54:04;102111.72;;;4.06;87.99
31082;BME280;17737;52.586;13.284;2023-04-10T03:56:34;102118.75;;;3.93;87.91
31082;BME280;17737;52.586;13.284;2023-04-10T03:59:02;102116.78;;;3.96;87.88
31082;BME280;17737;52.586;13.284;2023-04-10T04:01:30;102110.81;;;3.77;88.69
31082;BME280;17737;52.586;13.284;2023-04-10T04:03:58;102111.84;;;3.75;88.85
31082;BME280;17737;52.586;13.284;2023-04-10T04:06:27;102114.31;;;3.63;88.77
31082;BME280;17737;52.586;13.284;2023-04-10T04:08:55;102115.19;;;3.64;88.87
31082;BME280;17737;52.586;13.284;2023-04-10T04:11:23;102116.00;;;3.64;88.78
31082;BME280;17737;52.586;13.284;2023-04-10T04:13:52;102119.41;;;3.52;89.03
31082;BME280;17737;52.586;13.284;2023-04-10T04:16:21;102111.94;;;3.59;88.90
31082;BME280;17737;52.586;13.284;2023-04-10T04:18:49;102119.66;;;3.63;88.77
31082;BME280;17737;52.586;13.284;2023-04-10T04:21:17;102118.28;;;3.56;89.05
31082;BME280;17737;52.586;13.284;2023-04-10T04:23:45;102116.78;;;3.66;88.89
31082;BME280;17737;52.586;13.284;2023-04-10T04:26:13;102108.69;;;3.68;88.40
31082;BME280;17737;52.586;13.284;2023-04-10T04:28:41;102110.81;;;3.77;88.65
31082;BME280;17737;52.586;13.284;2023-04-10T04:31:10;102108.66;;;3.84;88.32
31082;BME280;17737;52.586;13.284;2023-04-10T04:33:38;102109.41;;;3.86;88.47
31082;BME280;17737;52.586;13.284;2023-04-10T04:36:06;102114.47;;;3.90;88.19
31082;BME280;17737;52.586;13.284;2023-04-10T04:38:34;102115.03;;;3.95;88.38
31082;BME280;17737;52.586;13.284;2023-04-10T04:41:03;102114.88;;;3.98;88.27
31082;BME280;17737;52.586;13.284;2023-04-10T04:43:31;102121.63;;;4.04;88.13
31082;BME280;17737;52.586;13.284;2023-04-10T04:45:59;102119.28;;;4.13;88.07
31082;BME280;17737;52.586;13.284;2023-04-10T04:48:28;102116.78;;;4.24;87.54
31082;BME280;17737;52.586;13.284;2023-04-10T04:50:56;102117.84;;;4.22;87.28
31082;BME280;17737;52.586;13.284;2023-04-10T04:53:24;102118.69;;;4.36;87.39
31082;BME280;17737;52.586;13.284;2023-04-10T04:55:52;102118.44;;;4.41;86.81
31082;BME280;17737;52.586;13.284;2023-04-10T04:58:20;102114.97;;;4.25;87.26
31082;BME280;17737;52.586;13.284;2023-04-10T05:00:50;102120.28;;;4.53;86.95
31082;BME280;17737;52.586;13.284;2023-04-10T05:03:18;102125.84;;;4.64;86.28
31082;BME280;17737;52.586;13.284;2023-04-10T05:05:48;102125.84;;;4.64;85.83
31082;BME280;17737;52.586;13.284;2023-04-10T05:08:16;102120.03;;;4.71;85.88
31082;BME280;17737;52.586;13.284;2023-04-10T05:10:44;102127.16;;;4.71;85.69
31082;BME280;17737;52.586;13.284;2023-04-10T05:13:12;102121.50;;;4.89;85.06
31082;BME280;17737;52.586;13.284;2023-04-10T05:15:41;102124.84;;;4.93;85.20
31082;BME280;17737;52.586;13.284;2023-04-10T05:18:09;102132.72;;;5.09;84.69
31082;BME280;17737;52.586;13.284;2023-04-10T05:20:39;102121.47;;;5.30;84.39
31082;BME280;17737;52.586;13.284;2023-04-10T05:23:08;102135.59;;;5.32;83.70
31082;BME280;17737;52.586;13.284;2023-04-10T05:25:36;102130.59;;;5.40;82.88
31082;BME280;17737;52.586;13.284;2023-04-10T05:28:04;102141.16;;;5.68;82.64
31082;BME280;17737;52.586;13.284;2023-04-10T05:30:32;102138.69;;;5.65;82.71
31082;BME280;17737;52.586;13.284;2023-04-10T05:33:00;102137.13;;;5.75;82.65
31082;BME280;17737;52.586;13.284;2023-04-10T05:35:28;102135.81;;;5.68;83.01
31082;BME280;17737;52.586;13.284;2023-04-10T05:37:56;102138.69;;;5.92;82.07
31082;BME280;17737;52.586;13.284;2023-04-10T05:40:27;102133.47;;;6.28;81.39
31082;BME280;17737;52.586;13.284;2023-04-10T05:42:55;102134.06;;;6.32;81.08
31082;BME280;17737;52.586;13.284;2023-04-10T05:45:24;102134.53;;;6.26;80.99
31082;BME280;17737;52.586;13.284;2023-04-10T05:47:53;102131.41;;;6.32;81.01
31082;BME280;17737;52.586;13.284;2023-04-10T05:50:21;102129.03;;;6.52;81.10
31082;BME280;17737;52.586;13.284;2023-04-10T05:52:49;102137.88;;;6.78;80.89
31082;BME280;17737;52.586;13.284;2023-04-10T05:55:17;102130.31;;;6.72;79.78
31082;BME280;17737;52.586;13.284;2023-04-10T05:57:47;102131.91;;;7.10;79.09
31082;BME280;17737;52.586;13.284;2023-04-10T06:00:19;102132.66;;;7.12;78.80
31082;BME280;17737;52.586;13.284;2023-04-10T06:02:47;102126.16;;;7.27;78.82
31082;BME280;17737;52.586;13.284;2023-04-10T06:05:16;102125.75;;;7.21;78.67
31082;BME280;17737;52.586;13.284;2023-04-10T06:07:44;102126.38;;;7.48;78.54
31082;BME280;17737;52.586;13.284;2023-04-10T06:10:12;102123.25;;;7.54;78.33
31082;BME280;17737;52.586;13.284;2023-04-10T06:12:40;102114.44;;;7.76;78.33
31082;BME280;17737;52.586;13.284;2023-04-10T06:15:10;102112.38;;;7.79;78.22
31082;BME280;17737;52.586;13.284;2023-04-10T06:17:40;102113.13;;;7.81;77.90
31082;BME280;17737;52.586;13.284;2023-04-10T06:20:10;102118.84;;;7.88;78.20
31082;BME280;17737;52.586;13.284;2023-04-10T06:22:39;102114.56;;;7.85;77.86
31082;BME280;17737;52.586;13.284;2023-04-10T06:25:07;102116.00;;;7.78;78.66
31082;BME280;17737;52.586;13.284;2023-04-10T06:27:36;102109.88;;;7.65;79.48
31082;BME280;17737;52.586;13.284;2023-04-10T06:30:05;102107.47;;;7.73;79.28
31082;BME280;17737;52.586;13.284;2023-04-10T06:32:36;102102.59;;;7.78;79.17
31082;BME280;17737;52.586;13.284;2023-04-10T06:35:04;102101.06;;;7.98;78.72
31082;BME280;17737;52.586;13.284;2023-04-10T06:37:32;102103.97;;;7.84;79.03
31082;BME280;17737;52.586;13.284;2023-04-10T06:40:02;102099.56;;;7.83;79.15
31082;BME280;17737;52.586;13.284;2023-04-10T06:42:32;102098.50;;;7.96;79.26
31082;BME280;17737;52.586;13.284;2023-04-10T06:45:01;102097.38;;;8.33;78.73
31082;BME280;17737;52.586;13.284;2023-04-10T06:47:29;102104.53;;;8.22;78.67
31082;BME280;17737;52.586;13.284;2023-04-10T06:49:59;102106.00;;;8.26;78.49
31082;BME280;17737;52.586;13.284;2023-04-10T06:52:27;102110.56;;;8.59;77.21
31082;BME280;17737;52.586;13.284;2023-04-10T06:54:55;102101.03;;;8.32;77.84
31082;BME280;17737;52.586;13.284;2023-04-10T06:57:23;102099.56;;;8.28;78.32
31082;BME280;17737;52.586;13.284;2023-04-10T06:59:51;102105.66;;;8.41;78.00
31082;BME280;17737;52.586;13.284;2023-04-10T07:02:19;102103.25;;;8.72;76.60
31082;BME280;17737;52.586;13.284;2023-04-10T07:04:47;102101.47;;;8.93;76.14
31082;BME280;17737;52.586;13.284;2023-04-10T07:07:18;102101.91;;;9.20;75.15
31082;BME280;17737;52.586;13.284;2023-04-10T07:09:46;102104.84;;;9.17;75.45
31082;BME280;17737;52.586;13.284;2023-04-10T07:12:14;102100.22;;;9.08;75.84
31082;BME280;17737;52.586;13.284;2023-04-10T07:14:42;102105.38;;;9.42;75.04
31082;BME280;17737;52.586;13.284;2023-04-10T07:17:10;102104.53;;;9.74;73.86
31082;BME280;17737;52.586;13.284;2023-04-10T07:19:38;102100.78;;;9.65;74.34
31082;BME280;17737;52.586;13.284;2023-04-10T07:22:06;102099.28;;;9.72;74.40
31082;BME280;17737;52.586;13.284;2023-04-10T07:24:36;102106.22;;;9.75;74.81
31082;BME280;17737;52.586;13.284;2023-04-10T07:27:03;102098.28;;;9.73;74.61
31082;BME280;17737;52.586;13.284;2023-04-10T07:29:31;102104.25;;;9.97;74.45
31082;BME280;17737;52.586;13.284;2023-04-10T07:32:00;102104.72;;;10.02;74.63
31082;BME280;17737;52.586;13.284;2023-04-10T07:34:29;102095.06;;;10.00;74.64
31082;BME280;17737;52.586;13.284;2023-04-10T07:36:58;102096.53;;;10.24;73.79
31082;BME280;17737;52.586;13.284;2023-04-10T07:39:26;102094.53;;;10.47;72.98
31082;BME280;17737;52.586;13.284;2023-04-10T07:41:55;102095.13;;;10.60;72.61
31082;BME280;17737;52.586;13.284;2023-04-10T07:44:25;102088.53;;;10.43;73.01
31082;BME280;17737;52.586;13.284;2023-04-10T07:46:54;102095.22;;;10.49;73.13
31082;BME280;17737;52.586;13.284;2023-04-10T07:49:22;102095.41;;;10.57;72.91
31082;BME280;17737;52.586;13.284;2023-04-10T07:51:50;102096.69;;;10.62;72.74
31082;BME280;17737;52.586;13.284;2023-04-10T07:54:18;102097.03;;;10.78;72.13
31082;BME280;17737;52.586;13.284;2023-04-10T07:56:46;102093.50;;;10.78;72.04
31082;BME280;17737;52.586;13.284;2023-04-10T07:59:17;102085.75;;;10.94;71.47
31082;BME280;17737;52.586;13.284;2023-04-10T08:01:48;102089.59;;;11.11;71.09
31082;BME280;17737;52.586;13.284;2023-04-10T08:04:17;102086.50;;;11.25;70.52
31082;BME280;17737;52.586;13.284;2023-04-10T08:06:45;102078.56;;;11.33;70.07
31082;BME280;17737;52.586;13.284;2023-04-10T08:09:13;102082.41;;;11.40;70.04
31082;BME280;17737;52.586;13.284;2023-04-10T08:11:41;102080.56;;;11.50;69.32
31082;BME280;17737;52.586;13.284;2023-04-10T08:14:09;102078.28;;;11.55;69.11
31082;BME280;17737;52.586;13.284;2023-04-10T08:16:45;102081.38;;;11.41;69.46
31082;BME280;17737;52.586;13.284;2023-04-10T08:19:13;102074.88;;;11.43;69.51
31082;BME280;17737;52.586;13.284;2023-04-10T08:21:41;102072.94;;;11.64;69.39
31082;BME280;17737;52.586;13.284;2023-04-10T08:24:09;102072.75;;;11.85;68.44
31082;BME280;17737;52.586;13.284;2023-04-10T08:26:37;102069.91;;;11.86;67.95
31082;BME280;17737;52.586;13.284;2023-04-10T08:29:05;102070.25;;;12.20;67.08
31082;BME280;17737;52.586;13.284;2023-04-10T08:31:33;102067.78;;;11.90;67.75
31082;BME280;17737;52.586;13.284;2023-04-10T08:34:03;102068.84;;;12.16;66.45
31082;BME280;17737;52.586;13.284;2023-04-10T08:36:31;102066.06;;;11.89;66.67
31082;BME280;17737;52.586;13.284;2023-04-10T08:38:59;102055.94;;;12.10;65.86
31082;BME280;17737;52.586;13.284;2023-04-10T08:41:27;102059.84;;;12.25;65.76
31082;BME280;17737;52.586;13.284;2023-04-10T08:43:56;102062.75;;;12.51;64.95
31082;BME280;17737;52.586;13.284;2023-04-10T08:46:24;102059.75;;;12.54;64.81
31082;BME280;17737;52.586;13.284;2023-04-10T08:48:56;102055.94;;;12.74;63.05
31082;BME280;17737;52.586;13.284;2023-04-10T08:51:31;102052.34;;;12.56;63.17
31082;BME280;17737;52.586;13.284;2023-04-10T08:54:06;102045.09;;;12.83;63.03
31082;BME280;17737;52.586;13.284;2023-04-10T08:56:38;102046.97;;;13.00;62.62
31082;BME280;17737;52.586;13.284;2023-04-10T08:59:09;102042.75;;;13.15;61.76
31082;BME280;17737;52.586;13.284;2023-04-10T09:01:38;102039.75;;;12.91;61.95
31082;BME280;17737;52.586;13.284;2023-04-10T09:04:07;102036.03;;;13.02;61.42
31082;BME280;17737;52.586;13.284;2023-04-10T09:06:39;102039.00;;;12.99;60.49
31082;BME280;17737;52.586;13.284;2023-04-10T09:09:07;102036.88;;;13.20;60.32
31082;BME280;17737;52.586;13.284;2023-04-10T09:11:55;102033.47;;;13.36;59.75
31082;BME280;17737;52.586;13.284;2023-04-10T09:14:28;102026.28;;;13.44;59.83
31082;BME280;17737;52.586;13.284;2023-04-10T09:17:16;102015.38;;;13.79;58.40
31082;BME280;17737;52.586;13.284;2023-04-10T09:19:47;102017.31;;;13.44;57.54
31082;BME280;17737;52.586;13.284;2023-04-10T09:22:18;102007.16;;;13.46;56.12
31082;BME280;17737;52.586;13.284;2023-04-10T09:24:57;102007.50;;;13.25;56.27
31082;BME280;17737;52.586;13.284;2023-04-10T09:27:27;102007.97;;;13.20;56.36
31082;BME280;17737;52.586;13.284;2023-04-10T09:29:57;102007.09;;;13.38;57.80
31082;BME280;17737;52.586;13.284;2023-04-10T09:32:35;102007.50;;;13.43;57.74
31082;BME280;17737;52.586;13.284;2023-04-10T09:35:06;102000.94;;;13.71;57.02
31082;BME280;17737;52.586;13.284;2023-04-10T09:37:37;101998.22;;;13.71;56.29
31082;BME280;17737;52.586;13.284;2023-04-10T09:43:20;101992.66;;;13.72;56.25
31082;BME280;17737;52.586;13.284;2023-04-10T09:45:50;101981.56;;;13.83;56.70
31082;BME280;17737;52.586;13.284;2023-04-10T09:48:21;101970.72;;;14.09;56.44
31082;BME280;17737;52.586;13.284;2023-04-10T09:50:50;101970.00;;;14.07;56.62
31082;BME280;17737;52.586;13.284;2023-04-10T09:53:20;101973.41;;;14.09;56.00
31082;BME280;17737;52.586;13.284;2023-04-10T09:55:49;101965.53;;;13.98;56.42
31082;BME280;17737;52.586;13.284;2023-04-10T09:58:17;101964.63;;;14.15;56.82
31082;BME280;17737;52.586;13.284;2023-04-10T10:00:47;101968.31;;;14.31;56.37
31082;BME280;17737;52.586;13.284;2023-04-10T10:03:16;101958.38;;;14.48;55.52
31082;BME280;17737;52.586;13.284;2023-04-10T10:05:49;101950.31;;;14.64;55.33
31082;BME280;17737;52.586;13.284;2023-04-10T10:08:18;101953.41;;;14.10;56.67
31082;BME280;17737;52.586;13.284;2023-04-10T10:10:50;101944.81;;;14.14;56.78
31082;BME280;17737;52.586;13.284;2023-04-10T10:13:23;101937.47;;;14.32;55.93
31082;BME280;17737;52.586;13.284;2023-04-10T10:16:00;101945.53;;;14.66;55.93
31082;BME280;17737;52.586;13.284;2023-04-10T10:18:38;101938.38;;;14.49;56.15
31082;BME280;17737;52.586;13.284;2023-04-10T10:21:12;101933.28;;;14.46;56.03
31082;BME280;17737;52.586;13.284;2023-04-10T10:23:42;101931.66;;;14.69;55.13
31082;BME280;17737;52.586;13.284;2023-04-10T10:26:13;101934.25;;;14.95;54.38
31082;BME280;17737;52.586;13.284;2023-04-10T10:28:45;101923.03;;;14.90;54.17
31082;BME280;17737;52.586;13.284;2023-04-10T10:31:15;101921.00;;;14.76;54.45
31082;BME280;17737;52.586;13.284;2023-04-10T10:33:45;101916.44;;;14.92;54.21
31082;BME280;17737;52.586;13.284;2023-04-10T10:36:14;101912.38;;;15.04;53.59
31082;BME280;17737;52.586;13.284;2023-04-10T10:38:54;101909.81;;;15.27;53.27
31082;BME280;17737;52.586;13.284;2023-04-10T10:41:36;101913.56;;;15.34;52.70
31082;BME280;17737;52.586;13.284;2023-04-10T10:44:17;101896.41;;;15.33;52.49
31082;BME280;17737;52.586;13.284;2023-04-10T10:47:02;101901.84;;;15.49;52.76
31082;BME280;17737;52.586;13.284;2023-04-10T10:49:50;101894.38;;;15.43;52.57
31082;BME280;17737;52.586;13.284;2023-04-10T10:52:39;101885.91;;;15.46;52.77
31082;BME280;17737;52.586;13.284;2023-04-10T10:55:28;101902.19;;;15.46;52.56
31082;BME280;17737;52.586;13.284;2023-04-10T10:58:04;101889.25;;;15.32;52.54
31082;BME280;17737;52.586;13.284;2023-04-10T11:01:05;101887.22;;;15.34;52.88
31082;BME280;17737;52.586;13.284;2023-04-10T11:03:37;101884.56;;;15.42;52.53
31082;BME280;17737;52.586;13.284;2023-04-10T11:06:06;101886.56;;;15.65;51.78
31082;BME280;17737;52.586;13.284;2023-04-10T11:08:35;101879.47;;;15.47;52.05
31082;BME280;17737;52.586;13.284;2023-04-10T11:11:13;101870.22;;;15.73;51.63
31082;BME280;17737;52.586;13.284;2023-04-10T11:14:14;101867.00;;;15.69;51.10
31082;BME280;17737;52.586;13.284;2023-04-10T11:16:47;101866.03;;;16.01;50.86
31082;BME280;17737;52.586;13.284;2023-04-10T11:19:15;101865.34;;;15.99;50.70
31082;BME280;17737;52.586;13.284;2023-04-10T11:22:03;101859.66;;;16.16;49.96
31082;BME280;17737;52.586;13.284;2023-04-10T11:24:56;101858.59;;;15.95;50.62
31082;BME280;17737;52.586;13.284;2023-04-10T11:27:46;101853.78;;;16.05;49.53
31082;BME280;17737;52.586;13.284;2023-04-10T11:30:25;101849.34;;;16.12;49.09
31082;BME280;17737;52.586;13.284;2023-04-10T11:33:02;101842.69;;;16.14;49.25
31082;BME280;17737;52.586;13.284;2023-04-10T11:35:32;101846.69;;;15.96;50.55
31082;BME280;17737;52.586;13.284;2023-04-10T11:38:10;101826.47;;;15.98;50.02
31082;BME280;17737;52.586;13.284;2023-04-10T11:40:58;101823.34;;;16.09;48.77
31082;BME280;17737;52.586;13.284;2023-04-10T11:43:30;101824.63;;;16.21;48.75
31082;BME280;17737;52.586;13.284;2023-04-10T11:46:04;101821.25;;;16.50;48.76
31082;BME280;17737;52.586;13.284;2023-04-10T11:48:35;101822.09;;;16.50;47.59
31082;BME280;17737;52.586;13.284;2023-04-10T11:51:07;101815.03;;;16.33;47.82
31082;BME280;17737;52.586;13.284;2023-04-10T11:53:36;101810.47;;;16.34;48.49
31082;BME280;17737;52.586;13.284;2023-04-10T11:56:14;101806.50;;;16.36;49.06
31082;BME280;17737;52.586;13.284;2023-04-10T11:58:48;101803.47;;;16.62;49.01
31082;BME280;17737;52.586;13.284;2023-04-10T12:01:20;101793.75;;;16.67;48.62
31082;BME280;17737;52.586;13.284;2023-04-10T12:03:49;101786.84;;;16.80;48.77
31082;BME280;17737;52.586;13.284;2023-04-10T12:06:18;101791.78;;;16.76;48.09
31082;BME280;17737;52.586;13.284;2023-04-10T12:08:47;101781.41;;;16.57;47.75
31082;BME280;17737;52.586;13.284;2023-04-10T12:11:17;101784.56;;;16.46;48.54
31082;BME280;17737;52.586;13.284;2023-04-10T12:13:50;101776.41;;;16.46;49.00
31082;BME280;17737;52.586;13.284;2023-04-10T12:16:20;101773.34;;;16.63;49.07
31082;BME280;17737;52.586;13.284;2023-04-10T12:18:49;101764.44;;;16.92;48.17
31082;BME280;17737;52.586;13.284;2023-04-10T12:21:18;101758.81;;;16.94;47.56
31082;BME280;17737;52.586;13.284;2023-04-10T12:23:49;101760.25;;;17.04;47.40
31082;BME280;17737;52.586;13.284;2023-04-10T12:26:20;101757.28;;;16.91;47.15
31082;BME280;17737;52.586;13.284;2023-04-10T12:28:52;101762.31;;;17.17;46.67
31082;BME280;17737;52.586;13.284;2023-04-10T12:31:27;101752.66;;;16.77;46.87
31082;BME280;17737;52.586;13.284;2023-04-10T12:33:57;101745.16;;;16.79;47.63
31082;BME280;17737;52.586;13.284;2023-04-10T12:36:27;101750.06;;;16.98;46.74
31082;BME280;17737;52.586;13.284;2023-04-10T12:38:56;101733.19;;;17.17;45.63
31082;BME280;17737;52.586;13.284;2023-04-10T12:41:27;101732.84;;;17.49;44.09
31082;BME280;17737;52.586;13.284;2023-04-10T12:44:08;101729.09;;;17.21;44.88
31082;BME280;17737;52.586;13.284;2023-04-10T12:46:37;101728.44;;;17.48;43.91
31082;BME280;17737;52.586;13.284;2023-04-10T12:49:10;101717.34;;;17.50;42.40
31082;BME280;17737;52.586;13.284;2023-04-10T12:51:47;101717.88;;;17.45;43.56
31082;BME280;17737;52.586;13.284;2023-04-10T12:54:28;101707.06;;;17.37;44.57
31082;BME280;17737;52.586;13.284;2023-04-10T12:56:57;101702.41;;;17.02;45.23
31082;BME280;17737;52.586;13.284;2023-04-10T12:59:27;101698.16;;;17.00;45.23
31082;BME280;17737;52.586;13.284;2023-04-10T13:01:56;101697.97;;;17.16;44.85
31082;BME280;17737;52.586;13.284;2023-04-10T13:04:24;101689.13;;;17.72;42.49
31082;BME280;17737;52.586;13.284;2023-04-10T13:06:53;101683.81;;;17.06;43.77